Time;durP1;ratioP1;P1;durP2;ratioP2;P2;SDS_P1;SDS_P2;PMS_P1;PMS_P2;Temp;Humidity;BMP_temperature;BMP_pressure;BME280_temperature;BME280_humidity;BME280_pressure;Samples;Min_cycle;Max_cycle;Signal;HPM_P1;HPM_P2
2022/03/28 00:00:48;;;;;;;5.90;2.92;;;;;;;;;;4958294;28;20055;-69
2022/03/28 00:03:14;;;;;;;26.83;3.47;;;;;;;;;;4958053;28;20042;-68
2022/03/28 00:05:40;;;;;;;10.27;2.95;;;;;;;;;;4975827;28;20367;-69
2022/03/28 00:08:06;;;;;;;16.13;3.17;;;;;;;;;;4942129;28;20125;-69
2022/03/28 00:10:33;;;;;;;6.60;3.13;;;;;;;;;;4957432;28;20082;-69
2022/03/28 00:12:59;;;;;;;12.15;3.10;;;;;;;;;;4975564;28;20109;-70
2022/03/28 00:15:25;;;;;;;23.98;3.60;;;;;;;;;;4974778;28;20407;-70
2022/03/28 00:17:51;;;;;;;17.25;3.65;;;;;;;;;;4975012;28;20105;-70
2022/03/28 00:20:18;;;;;;;20.52;3.85;;;;;;;;;;4975247;28;20048;-70
2022/03/28 00:22:44;;;;;;;7.20;3.17;;;;;;;;;;4958238;28;20085;-70
2022/03/28 00:25:11;;;;;;;36.80;4.45;;;;;;;;;;4957610;28;20427;-70
2022/03/28 00:27:37;;;;;;;10.88;3.53;;;;;;;;;;4973600;28;20042;-70
2022/03/28 00:30:04;;;;;;;48.30;4.30;;;;;;;;;;4975026;28;20046;-70
2022/03/28 00:32:30;;;;;;;26.58;3.42;;;;;;;;;;4975151;28;20379;-70
2022/03/28 00:34:56;;;;;;;23.58;4.15;;;;;;;;;;4975304;28;20047;-70
2022/03/28 00:37:22;;;;;;;27.67;3.85;;;;;;;;;;4957243;28;20520;-70
2022/03/28 00:39:48;;;;;;;12.50;3.92;;;;;;;;;;4957192;28;20052;-70
2022/03/28 00:42:14;;;;;;;32.80;4.68;;;;;;;;;;4957339;28;20039;-70
2022/03/28 00:44:40;;;;;;;75.85;9.77;;;;;;;;;;4957414;28;20046;-70
2022/03/28 00:47:06;;;;;;;16.52;4.10;;;;;;;;;;4974770;28;20120;-70
2022/03/28 00:49:32;;;;;;;12.82;4.28;;;;;;;;;;4957464;28;20039;-70
2022/03/28 00:51:58;;;;;;;12.73;4.07;;;;;;;;;;4974841;28;20047;-70
2022/03/28 00:54:24;;;;;;;31.48;5.45;;;;;;;;;;4941212;28;20043;-70
2022/03/28 00:56:51;;;;;;;15.25;5.30;;;;;;;;;;4956555;28;20078;-70
2022/03/28 00:59:17;;;;;;;16.90;4.82;;;;;;;;;;4975202;28;20456;-70
2022/03/28 01:01:46;;;;;;;23.85;5.30;;;;;;;;;;4974497;28;20043;-70
2022/03/28 01:04:12;;;;;;;23.88;5.75;;;;;;;;;;4941152;28;20054;-70
2022/03/28 01:06:38;;;;;;;30.00;6.22;;;;;;;;;;4974596;28;20071;-70
2022/03/28 01:09:05;;;;;;;17.15;5.85;;;;;;;;;;4974512;28;20039;-70
2022/03/28 01:11:34;;;;;;;16.73;5.55;;;;;;;;;;4957158;28;20051;-70
2022/03/28 01:14:01;;;;;;;17.52;6.00;;;;;;;;;;4940892;28;20047;-70
2022/03/28 01:16:30;;;;;;;17.55;6.50;;;;;;;;;;4974581;28;20053;-70
2022/03/28 01:18:57;;;;;;;66.85;7.90;;;;;;;;;;4974633;28;20070;-70
2022/03/28 01:21:23;;;;;;;23.92;6.93;;;;;;;;;;4974885;28;20101;-70
2022/03/28 01:23:51;;;;;;;62.08;8.43;;;;;;;;;;4974696;28;20046;-70
2022/03/28 01:26:17;;;;;;;43.35;7.93;;;;;;;;;;4974793;28;20123;-70
2022/03/28 01:28:43;;;;;;;13.70;6.68;;;;;;;;;;4974692;28;20062;-70
2022/03/28 01:31:09;;;;;;;16.52;6.85;;;;;;;;;;4957555;28;20058;-71
2022/03/28 01:33:35;;;;;;;46.55;8.80;;;;;;;;;;4974705;28;20047;-71
2022/03/28 01:36:01;;;;;;;31.70;8.50;;;;;;;;;;4956918;28;20142;-71
2022/03/28 01:38:27;;;;;;;44.83;9.30;;;;;;;;;;4976011;28;20046;-71
2022/03/28 01:40:54;;;;;;;41.50;9.73;;;;;;;;;;4978207;28;20564;-71
2022/03/28 01:43:20;;;;;;;81.32;12.35;;;;;;;;;;4979626;28;20054;-70
2022/03/28 01:45:46;;;;;;;32.70;10.60;;;;;;;;;;4979667;28;20043;-71
2022/03/28 01:48:13;;;;;;;36.65;11.10;;;;;;;;;;4980967;28;20043;-70
2022/03/28 01:50:39;;;;;;;28.33;10.75;;;;;;;;;;4961082;28;20051;-70
2022/03/28 01:53:05;;;;;;;25.35;10.07;;;;;;;;;;4960617;28;20055;-70
2022/03/28 01:55:31;;;;;;;24.65;9.45;;;;;;;;;;4960352;28;20050;-70
2022/03/28 01:57:57;;;;;;;26.75;10.00;;;;;;;;;;4960193;28;20051;-69
2022/03/28 02:00:25;;;;;;;27.50;9.13;;;;;;;;;;4976514;28;20058;-70
2022/03/28 02:02:51;;;;;;;33.80;11.35;;;;;;;;;;4977872;28;20051;-70
2022/03/28 02:05:18;;;;;;;33.83;10.80;;;;;;;;;;4960315;28;20050;-70
2022/03/28 02:07:49;;;;;;;111.70;13.93;;;;;;;;;;4977747;28;20051;-70
2022/03/28 02:10:16;;;;;;;30.17;11.80;;;;;;;;;;4977980;28;20436;-70
2022/03/28 02:12:42;;;;;;;27.13;11.38;;;;;;;;;;4977612;28;20410;-70
2022/03/28 02:15:10;;;;;;;23.83;10.20;;;;;;;;;;4977739;28;20053;-71
2022/03/28 02:17:36;;;;;;;24.52;11.82;;;;;;;;;;4959862;28;20136;-69
2022/03/28 02:20:03;;;;;;;41.22;12.38;;;;;;;;;;4977671;28;20059;-70
2022/03/28 02:22:31;;;;;;;30.83;12.23;;;;;;;;;;4959465;28;20101;-70
2022/03/28 02:24:57;;;;;;;71.30;15.80;;;;;;;;;;4977774;28;20090;-70
2022/03/28 02:27:23;;;;;;;34.83;12.13;;;;;;;;;;4977434;28;20074;-70
2022/03/28 02:29:49;;;;;;;27.40;12.80;;;;;;;;;;4959622;28;20082;-70
2022/03/28 02:32:15;;;;;;;28.15;11.88;;;;;;;;;;4977052;28;20513;-70
2022/03/28 02:34:41;;;;;;;22.77;10.80;;;;;;;;;;4977501;28;20074;-70
2022/03/28 02:37:08;;;;;;;39.15;13.07;;;;;;;;;;4977142;28;20039;-70
2022/03/28 02:39:33;;;;;;;34.42;11.50;;;;;;;;;;4959926;28;20062;-70
2022/03/28 02:42:00;;;;;;;46.15;12.63;;;;;;;;;;4977294;28;20042;-70
2022/03/28 02:44:26;;;;;;;33.60;12.13;;;;;;;;;;4959576;28;20109;-70
2022/03/28 02:46:52;;;;;;;39.70;13.05;;;;;;;;;;4959671;28;20055;-70
2022/03/28 02:49:19;;;;;;;26.98;11.85;;;;;;;;;;4976189;28;20418;-70
2022/03/28 02:51:45;;;;;;;25.25;11.75;;;;;;;;;;4977267;28;20086;-70
2022/03/28 02:54:11;;;;;;;46.90;13.18;;;;;;;;;;4975993;28;20051;-69
2022/03/28 02:56:37;;;;;;;66.68;13.95;;;;;;;;;;4958910;28;20086;-70
2022/03/28 02:59:03;;;;;;;57.55;14.25;;;;;;;;;;4959194;28;20125;-70
2022/03/28 03:01:29;;;;;;;78.55;14.57;;;;;;;;;;4959181;28;20050;-70
2022/03/28 03:03:55;;;;;;;36.70;12.20;;;;;;;;;;4976496;28;20050;-70
2022/03/28 03:06:21;;;;;;;46.08;12.52;;;;;;;;;;4959397;28;20051;-70
2022/03/28 03:08:48;;;;;;;60.88;12.95;;;;;;;;;;4976145;28;20060;-70
2022/03/28 03:11:14;;;;;;;34.80;11.30;;;;;;;;;;4976070;28;20055;-70
2022/03/28 03:13:40;;;;;;;48.92;13.02;;;;;;;;;;4976390;28;20043;-70
2022/03/28 03:16:06;;;;;;;73.45;13.45;;;;;;;;;;4976310;28;20078;-70
2022/03/28 03:18:32;;;;;;;62.92;12.13;;;;;;;;;;4976436;28;20050;-70
2022/03/28 03:21:01;;;;;;;39.28;11.15;;;;;;;;;;4976386;28;20098;-70
2022/03/28 03:23:27;;;;;;;;;;;;;;;;;;4959682;28;20050;-70
2022/03/28 03:25:53;;;;;;;40.08;9.95;;;;;;;;;;4976459;28;20265;-71
2022/03/28 03:28:20;;;;;;;24.83;9.98;;;;;;;;;;4942687;28;20093;-70
2022/03/28 03:30:46;;;;;;;22.65;9.20;;;;;;;;;;4958117;28;20054;-70
2022/03/28 03:33:12;;;;;;;28.30;10.68;;;;;;;;;;4958521;28;20414;-70
2022/03/28 03:35:38;;;;;;;24.13;10.68;;;;;;;;;;4958352;28;20050;-70
2022/03/28 03:38:04;;;;;;;58.88;11.52;;;;;;;;;;4976014;28;20050;-69
2022/03/28 03:40:30;;;;;;;40.40;10.25;;;;;;;;;;4958425;28;20482;-70
2022/03/28 03:42:57;;;;;;;37.88;10.35;;;;;;;;;;4958215;28;20051;-70
2022/03/28 03:45:23;;;;;;;60.63;13.10;;;;;;;;;;4942408;28;20058;-70
2022/03/28 03:47:49;;;;;;;114.03;15.25;;;;;;;;;;4958210;28;20563;-69
2022/03/28 03:50:15;;;;;;;51.35;12.23;;;;;;;;;;4958151;28;20047;-70
2022/03/28 03:52:41;;;;;;;68.20;12.60;;;;;;;;;;4975738;28;20050;-69
2022/03/28 03:55:07;;;;;;;60.10;14.10;;;;;;;;;;4942163;28;20142;-69
2022/03/28 03:57:34;;;;;;;61.67;12.00;;;;;;;;;;4975357;28;20065;-74
2022/03/28 04:00:00;;;;;;;73.32;13.13;;;;;;;;;;4975417;28;20057;-70
2022/03/28 04:02:26;;;;;;;39.85;11.52;;;;;;;;;;4975274;28;20422;-69
2022/03/28 04:04:52;;;;;;;75.80;14.05;;;;;;;;;;4975557;28;20058;-69
2022/03/28 04:07:18;;;;;;;45.78;12.30;;;;;;;;;;4975293;28;20237;-69
2022/03/28 04:09:44;;;;;;;43.65;11.60;;;;;;;;;;4941952;28;20093;-69
2022/03/28 04:12:12;;;;;;;36.78;11.38;;;;;;;;;;4975809;28;20038;-69
2022/03/28 04:14:39;;;;;;;56.95;13.95;;;;;;;;;;4973892;28;20046;-70
2022/03/28 04:17:05;;;;;;;77.00;12.02;;;;;;;;;;4975399;28;20047;-70
2022/03/28 04:19:31;;;;;;;63.13;11.82;;;;;;;;;;4975296;28;20046;-72
2022/03/28 04:21:57;;;;;;;31.35;9.73;;;;;;;;;;4958037;28;20379;-70
2022/03/28 04:24:23;;;;;;;60.28;11.73;;;;;;;;;;4975368;28;20574;-70
2022/03/28 04:26:49;;;;;;;26.10;10.98;;;;;;;;;;4975067;28;20113;-70
2022/03/28 04:29:15;;;;;;;50.40;11.95;;;;;;;;;;4957394;28;20054;-70
2022/03/28 04:31:41;;;;;;;36.35;12.30;;;;;;;;;;4975545;28;20054;-71
2022/03/28 04:34:07;;;;;;;55.67;11.82;;;;;;;;;;4974773;28;20137;-71
2022/03/28 04:36:34;;;;;;;53.40;12.43;;;;;;;;;;4975546;28;20046;-72
2022/03/28 04:39:00;;;;;;;38.78;10.38;;;;;;;;;;4974556;28;20414;-70
2022/03/28 04:41:26;;;;;;;26.95;10.82;;;;;;;;;;4941916;28;20055;-70
2022/03/28 04:43:52;;;;;;;55.72;12.32;;;;;;;;;;4974812;28;20043;-70
2022/03/28 04:46:18;;;;;;;45.97;12.20;;;;;;;;;;4974980;28;20049;-70
2022/03/28 04:48:47;;;;;;;41.17;10.40;;;;;;;;;;4975081;28;20379;-71
2022/03/28 04:51:13;;;;;;;53.03;12.20;;;;;;;;;;4957689;28;20050;-71
2022/03/28 04:53:39;;;;;;;40.55;11.15;;;;;;;;;;4974771;28;20082;-70
2022/03/28 04:56:05;;;;;;;33.10;11.77;;;;;;;;;;4974415;28;20101;-71
2022/03/28 04:58:31;;;;;;;27.98;10.55;;;;;;;;;;4957803;28;20175;-71
2022/03/28 05:00:57;;;;;;;39.15;13.88;;;;;;;;;;4973759;28;20043;-71
2022/03/28 05:03:23;;;;;;;57.85;12.70;;;;;;;;;;4957310;28;20091;-71
2022/03/28 05:05:49;;;;;;;42.10;12.48;;;;;;;;;;4975278;28;20050;-70
2022/03/28 05:08:14;;;;;;;67.28;14.15;;;;;;;;;;4957232;28;20046;-71
2022/03/28 05:10:41;;;;;;;90.82;16.50;;;;;;;;;;4974821;28;20039;-70
2022/03/28 05:13:07;;;;;;;66.97;16.52;;;;;;;;;;4962710;28;20053;-71
2022/03/28 05:15:33;;;;;;;74.72;19.10;;;;;;;;;;4978942;28;20379;-71
2022/03/28 05:18:01;;;;;;;40.20;14.57;;;;;;;;;;4978829;28;20139;-71
2022/03/28 05:20:27;;;;;;;33.95;14.27;;;;;;;;;;4978937;28;20125;-71
2022/03/28 05:22:53;;;;;;;32.83;13.50;;;;;;;;;;4977381;28;20054;-71
2022/03/28 05:25:19;;;;;;;36.80;13.68;;;;;;;;;;4978674;28;20038;-70
2022/03/28 05:27:45;;;;;;;33.15;14.32;;;;;;;;;;4978318;28;20378;-71
2022/03/28 05:30:12;;;;;;;53.88;17.23;;;;;;;;;;4960601;28;20387;-70
2022/03/28 05:32:38;;;;;;;50.47;17.45;;;;;;;;;;4945546;28;20454;-71
2022/03/28 05:35:08;;;;;;;44.10;16.55;;;;;;;;;;4960769;28;20046;-70
2022/03/28 05:37:34;;;;;;;64.72;18.98;;;;;;;;;;4978204;28;20078;-70
2022/03/28 05:40:01;;;;;;;57.22;17.63;;;;;;;;;;4977847;28;20188;-70
2022/03/28 05:42:28;;;;;;;66.00;19.25;;;;;;;;;;4978286;28;20055;-70
2022/03/28 05:44:54;;;;;;;40.60;16.65;;;;;;;;;;4977927;28;20043;-70
2022/03/28 05:47:20;;;;;;;37.25;15.70;;;;;;;;;;4978059;28;20054;-70
2022/03/28 05:49:46;;;;;;;33.65;15.73;;;;;;;;;;4960714;28;20042;-71
2022/03/28 05:52:12;;;;;;;47.30;15.85;;;;;;;;;;4977810;28;20090;-70
2022/03/28 05:54:38;;;;;;;58.80;14.48;;;;;;;;;;4978055;28;20053;-70
2022/03/28 05:57:05;;;;;;;34.38;14.30;;;;;;;;;;4977620;28;20058;-71
2022/03/28 05:59:31;;;;;;;30.50;12.65;;;;;;;;;;4977971;28;20054;-71
2022/03/28 06:01:57;;;;;;;25.05;12.52;;;;;;;;;;4977596;28;20046;-70
2022/03/28 06:04:23;;;;;;;33.90;14.25;;;;;;;;;;4977356;28;20054;-70
2022/03/28 06:06:49;;;;;;;29.80;13.50;;;;;;;;;;4977674;28;20078;-70
2022/03/28 06:09:15;;;;;;;38.78;14.00;;;;;;;;;;4977597;28;20126;-70
2022/03/28 06:11:41;;;;;;;32.08;13.60;;;;;;;;;;4977888;28;20461;-70
2022/03/28 06:14:09;;;;;;;52.60;19.05;;;;;;;;;;4977468;28;20046;-70
2022/03/28 06:16:35;;;;;;;42.60;16.20;;;;;;;;;;4977657;28;20047;-71
2022/03/28 06:19:01;;;;;;;33.55;14.93;;;;;;;;;;4977476;28;20541;-70
2022/03/28 06:21:30;;;;;;;34.83;15.45;;;;;;;;;;4977881;28;20113;-70
2022/03/28 06:23:57;;;;;;;41.63;16.58;;;;;;;;;;4976617;28;20122;-70
2022/03/28 06:26:23;;;;;;;32.42;14.80;;;;;;;;;;4959804;28;20080;-71
2022/03/28 06:28:49;;;;;;;31.27;14.57;;;;;;;;;;4967236;28;20039;-70
2022/03/28 06:31:15;;;;;;;31.63;13.38;;;;;;;;;;4968882;28;20039;-71
2022/03/28 06:33:41;;;;;;;34.30;13.18;;;;;;;;;;4966722;28;20058;-71
2022/03/28 06:36:08;;;;;;;30.33;14.27;;;;;;;;;;4966795;28;20063;-70
2022/03/28 06:38:34;;;;;;;43.90;15.73;;;;;;;;;;4968002;28;20035;-71
2022/03/28 06:41:00;;;;;;;42.38;15.00;;;;;;;;;;4967186;28;20129;-71
2022/03/28 06:43:26;;;;;;;46.05;15.50;;;;;;;;;;4963515;28;20474;-70
2022/03/28 06:45:52;;;;;;;31.40;13.57;;;;;;;;;;4956244;29;20091;-72
2022/03/28 06:48:19;;;;;;;35.90;14.93;;;;;;;;;;4924808;29;20051;-71
2022/03/28 06:50:45;;;;;;;31.35;14.45;;;;;;;;;;4940051;29;20054;-70
2022/03/28 06:53:11;;;;;;;33.10;14.02;;;;;;;;;;4957648;29;20051;-70
2022/03/28 06:55:37;;;;;;;32.28;13.43;;;;;;;;;;4957581;29;20051;-70
2022/03/28 06:58:03;;;;;;;51.40;17.75;;;;;;;;;;4957160;29;20059;-72
2022/03/28 07:00:29;;;;;;;43.85;16.42;;;;;;;;;;4957974;29;20106;-70
2022/03/28 07:02:55;;;;;;;29.25;13.70;;;;;;;;;;4945074;28;20097;-69
2022/03/28 07:05:21;;;;;;;33.90;13.55;;;;;;;;;;4957567;29;20043;-69
2022/03/28 07:07:49;;;;;;;28.23;13.20;;;;;;;;;;4957302;29;20043;-70
2022/03/28 07:10:16;;;;;;;46.90;16.02;;;;;;;;;;4955806;29;20043;-69
2022/03/28 07:12:42;;;;;;;29.63;13.02;;;;;;;;;;4940229;29;20062;-70
2022/03/28 07:15:10;;;;;;;23.90;10.73;;;;;;;;;;4955774;29;20051;-70
2022/03/28 07:17:46;;;;;;;37.58;12.50;;;;;;;;;;4923872;29;20053;-70
2022/03/28 07:20:13;;;;;;;29.25;12.00;;;;;;;;;;4956688;28;20580;-70
2022/03/28 07:22:39;;;;;;;24.40;10.77;;;;;;;;;;4956991;29;20058;-70
2022/03/28 07:25:06;;;;;;;24.05;10.90;;;;;;;;;;4957103;29;20550;-71
2022/03/28 07:27:37;;;;;;;19.70;9.95;;;;;;;;;;4956926;29;20039;-71
2022/03/28 07:30:03;;;;;;;26.15;10.30;;;;;;;;;;4956938;29;20039;-70
2022/03/28 07:32:29;;;;;;;25.48;10.20;;;;;;;;;;4956220;29;20126;-70
2022/03/28 07:34:55;;;;;;;23.75;9.40;;;;;;;;;;4946404;28;20611;-70
2022/03/28 07:37:21;;;;;;;21.20;9.57;;;;;;;;;;4964955;28;20122;-70
2022/03/28 07:39:47;;;;;;;20.63;8.75;;;;;;;;;;4965581;28;20053;-70
2022/03/28 07:42:13;;;;;;;50.45;14.45;;;;;;;;;;4948433;28;20402;-70
2022/03/28 07:44:41;;;;;;;23.52;9.05;;;;;;;;;;4948184;28;20046;-69
2022/03/28 07:47:08;;;;;;;21.87;8.70;;;;;;;;;;4964604;28;20043;-70
2022/03/28 07:49:35;;;;;;;20.15;9.23;;;;;;;;;;4966088;28;20049;-70
2022/03/28 07:52:01;;;;;;;20.40;8.40;;;;;;;;;;4966155;28;20130;-70
2022/03/28 07:54:28;;;;;;;18.65;7.88;;;;;;;;;;4947425;28;20039;-70
2022/03/28 07:56:55;;;;;;;22.73;8.55;;;;;;;;;;4963692;28;20086;-70
2022/03/28 07:59:23;;;;;;;20.13;7.95;;;;;;;;;;4965300;28;20097;-70
2022/03/28 08:01:50;;;;;;;17.80;7.88;;;;;;;;;;4967360;28;20047;-70
2022/03/28 08:04:16;;;;;;;13.07;6.63;;;;;;;;;;4948651;28;20050;-70
2022/03/28 08:06:42;;;;;;;12.38;5.97;;;;;;;;;;4966236;28;20042;-70
2022/03/28 08:09:08;;;;;;;13.40;6.20;;;;;;;;;;4966755;28;20039;-70
2022/03/28 08:11:35;;;;;;;12.70;5.65;;;;;;;;;;4965001;28;20050;-70
2022/03/28 08:14:01;;;;;;;13.88;5.95;;;;;;;;;;4964451;28;20049;-69
2022/03/28 08:16:28;;;;;;;13.90;5.90;;;;;;;;;;4964098;28;20047;-70
2022/03/28 08:18:54;;;;;;;21.73;6.38;;;;;;;;;;4965959;28;20085;-70
2022/03/28 08:21:20;;;;;;;14.27;5.55;;;;;;;;;;4966465;28;20067;-70
2022/03/28 08:23:46;;;;;;;14.32;5.63;;;;;;;;;;4949011;28;20086;-70
2022/03/28 08:26:12;;;;;;;14.27;5.32;;;;;;;;;;4963930;28;20035;-70
2022/03/28 08:28:39;;;;;;;12.82;5.70;;;;;;;;;;4965235;28;20039;-70
2022/03/28 08:31:05;;;;;;;21.65;7.07;;;;;;;;;;4949584;28;20064;-70
2022/03/28 08:33:31;;;;;;;12.55;5.43;;;;;;;;;;4964787;28;20595;-70
2022/03/28 08:35:57;;;;;;;11.10;5.03;;;;;;;;;;4948214;28;20072;-70
2022/03/28 08:38:23;;;;;;;16.73;6.03;;;;;;;;;;4967958;28;20086;-71
2022/03/28 08:40:49;;;;;;;10.77;5.00;;;;;;;;;;4946967;28;20055;-70
2022/03/28 08:43:23;;;;;;;28.10;7.75;;;;;;;;;;4951739;28;20125;-70
2022/03/28 08:45:50;;;;;;;15.98;6.45;;;;;;;;;;4965000;28;20078;-70
2022/03/28 08:48:16;;;;;;;13.40;4.65;;;;;;;;;;4964131;28;20142;-70
2022/03/28 08:50:46;;;;;;;23.90;8.05;;;;;;;;;;4964784;28;20053;-70
2022/03/28 08:53:13;;;;;;;11.75;5.07;;;;;;;;;;4932399;28;20063;-70
2022/03/28 08:55:44;;;;;;;16.20;5.88;;;;;;;;;;4963037;28;20103;-70
2022/03/28 08:58:13;;;;;;;15.73;6.20;;;;;;;;;;4963595;28;20106;-70
2022/03/28 09:00:39;;;;;;;14.43;5.90;;;;;;;;;;4964071;28;20119;-70
2022/03/28 09:03:05;;;;;;;11.18;5.45;;;;;;;;;;4946828;28;20043;-71
2022/03/28 09:05:33;;;;;;;16.95;6.55;;;;;;;;;;4930440;28;20517;-71
2022/03/28 09:07:59;;;;;;;17.65;6.32;;;;;;;;;;4963752;28;20144;-71
2022/03/28 09:10:28;;;;;;;12.32;6.30;;;;;;;;;;4963152;28;20039;-71
2022/03/28 09:12:56;;;;;;;23.75;6.28;;;;;;;;;;4960849;28;20566;-71
2022/03/28 09:15:23;;;;;;;13.35;5.28;;;;;;;;;;4969237;28;20169;-70
2022/03/28 09:17:55;;;;;;;18.90;6.25;;;;;;;;;;4973289;28;20530;-70
2022/03/28 09:20:22;;;;;;;8.07;4.60;;;;;;;;;;4974802;28;20081;-70
2022/03/28 09:22:49;;;;;;;8.55;4.47;;;;;;;;;;4957363;28;20050;-70
2022/03/28 09:25:17;;;;;;;11.38;4.65;;;;;;;;;;4975145;28;20091;-70
2022/03/28 09:27:44;;;;;;;20.90;7.97;;;;;;;;;;4965800;28;20078;-70
2022/03/28 09:30:15;;;;;;;19.15;7.13;;;;;;;;;;4963368;28;20056;-71
2022/03/28 09:32:47;;;;;;;11.77;4.97;;;;;;;;;;4946553;29;20082;-71
2022/03/28 09:35:26;;;;;;;14.65;6.75;;;;;;;;;;4955173;29;20062;-72
2022/03/28 09:38:01;;;;;;;10.75;4.82;;;;;;;;;;4922475;29;20047;-71
2022/03/28 09:40:33;;;;;;;11.05;5.45;;;;;;;;;;4954888;29;20087;-71
2022/03/28 09:42:59;;;;;;;9.27;5.00;;;;;;;;;;4938127;29;20131;-71
2022/03/28 09:45:28;;;;;;;9.40;5.07;;;;;;;;;;4921878;29;20051;-71
2022/03/28 09:47:55;;;;;;;9.48;4.85;;;;;;;;;;4955426;29;20055;-71
2022/03/28 09:50:28;;;;;;;25.25;8.43;;;;;;;;;;4955199;28;20055;-71
2022/03/28 09:52:54;;;;;;;10.25;5.57;;;;;;;;;;4922598;29;20039;-71
2022/03/28 09:55:20;;;;;;;40.13;11.63;;;;;;;;;;4954809;29;20122;-71
2022/03/28 09:57:49;;;;;;;9.90;5.32;;;;;;;;;;4953550;28;20099;-70
2022/03/28 10:00:17;;;;;;;13.82;5.95;;;;;;;;;;4924696;29;20063;-70
2022/03/28 10:02:43;;;;;;;18.15;7.72;;;;;;;;;;4941419;29;20047;-70
2022/03/28 10:05:09;;;;;;;26.08;9.27;;;;;;;;;;4958622;29;20062;-71
2022/03/28 10:07:36;;;;;;;13.10;5.90;;;;;;;;;;4958407;28;20410;-70
2022/03/28 10:10:03;;;;;;;12.27;5.78;;;;;;;;;;4958597;29;20043;-70
2022/03/28 10:12:29;;;;;;;9.25;5.32;;;;;;;;;;4958291;29;20047;-70
2022/03/28 10:15:00;;;;;;;10.05;5.75;;;;;;;;;;4957963;29;20047;-71
2022/03/28 10:17:27;;;;;;;14.48;5.50;;;;;;;;;;4958503;29;20051;-71
2022/03/28 10:19:53;;;;;;;12.88;5.57;;;;;;;;;;4957906;28;20054;-69
2022/03/28 10:22:32;;;;;;;9.30;4.88;;;;;;;;;;4941229;29;20118;-70
2022/03/28 10:25:01;;;;;;;11.90;5.50;;;;;;;;;;4956767;29;20126;-70
2022/03/28 10:27:27;;;;;;;11.63;5.45;;;;;;;;;;4957663;29;20102;-70
2022/03/28 10:29:53;;;;;;;9.20;5.20;;;;;;;;;;4957765;29;20126;-70
2022/03/28 10:32:20;;;;;;;11.85;5.00;;;;;;;;;;4958324;29;20097;-70
2022/03/28 10:34:52;;;;;;;12.15;6.22;;;;;;;;;;4956527;29;20475;-70
2022/03/28 10:37:38;;;;;;;11.20;5.97;;;;;;;;;;4956688;29;20066;-72
2022/03/28 10:40:22;;;;;;;15.05;6.35;;;;;;;;;;4957792;28;20047;-70
2022/03/28 10:43:09;;;;;;;15.95;7.60;;;;;;;;;;4957720;29;20542;-71
2022/03/28 10:45:53;;;;;;;9.90;4.88;;;;;;;;;;4940473;29;20054;-71
2022/03/28 10:48:51;;;;;;;11.35;5.53;;;;;;;;;;4957486;29;20126;-71
2022/03/28 10:51:19;;;;;;;10.10;5.60;;;;;;;;;;4915221;29;20055;-70
2022/03/28 10:54:09;;;;;;;9.68;5.07;;;;;;;;;;4968977;28;20061;-70
2022/03/28 10:56:40;;;;;;;17.98;6.15;;;;;;;;;;4968870;28;20414;-71
2022/03/28 10:59:06;;;;;;;15.88;6.15;;;;;;;;;;4959619;28;20132;-69
2022/03/28 11:01:32;;;;;;;23.70;7.72;;;;;;;;;;4959405;28;20409;-71
2022/03/28 11:04:00;;;;;;;25.63;8.25;;;;;;;;;;4976708;28;20078;-70
2022/03/28 11:06:45;;;;;;;11.45;5.70;;;;;;;;;;4976905;28;20051;-73
2022/03/28 11:09:11;;;;;;;11.50;5.60;;;;;;;;;;4976663;28;20061;-70
2022/03/28 11:11:37;;;;;;;8.23;5.18;;;;;;;;;;4976584;28;20125;-70
2022/03/28 11:14:04;;;;;;;9.15;5.50;;;;;;;;;;4959139;28;20106;-71
2022/03/28 11:16:39;;;;;;;27.25;8.98;;;;;;;;;;4976649;28;20134;-71
2022/03/28 11:19:25;;;;;;;8.35;5.07;;;;;;;;;;4976339;28;20043;-71
2022/03/28 11:22:00;;;;;;;11.02;6.20;;;;;;;;;;4976285;28;20136;-70
2022/03/28 11:24:41;;;;;;;11.15;5.47;;;;;;;;;;4976163;28;20054;-71
2022/03/28 11:27:08;;;;;;;14.38;6.78;;;;;;;;;;4976154;28;20046;-71
2022/03/28 11:29:34;;;;;;;29.05;9.40;;;;;;;;;;4958370;28;20395;-71
2022/03/28 11:32:04;;;;;;;16.92;7.13;;;;;;;;;;4976418;28;20387;-71
2022/03/28 11:34:31;;;;;;;10.45;5.63;;;;;;;;;;4958754;28;20109;-71
2022/03/28 11:36:58;;;;;;;12.10;6.10;;;;;;;;;;4958509;28;20462;-71
2022/03/28 11:39:26;;;;;;;11.75;6.38;;;;;;;;;;4975829;28;20494;-71
2022/03/28 11:41:53;;;;;;;11.57;6.13;;;;;;;;;;4958571;28;20078;-71
2022/03/28 11:44:19;;;;;;;31.77;9.20;;;;;;;;;;4975836;28;20058;-71
2022/03/28 11:46:53;;;;;;;12.10;6.18;;;;;;;;;;4942667;28;20121;-71
2022/03/28 11:49:19;;;;;;;26.60;8.18;;;;;;;;;;4958395;28;20051;-71
2022/03/28 11:51:45;;;;;;;9.68;5.70;;;;;;;;;;4975776;28;20465;-68
2022/03/28 11:54:13;;;;;;;11.85;6.47;;;;;;;;;;4975600;28;20055;-71
2022/03/28 11:59:25;;;;;;;10.98;6.32;;;;;;;;;;4976200;28;20125;-71
2022/03/28 12:01:58;;;;;;;7.43;6.00;;;;;;;;;;4976062;28;20459;-71
2022/03/28 12:04:24;;;;;;;10.18;6.47;;;;;;;;;;4977264;28;20126;-72
2022/03/28 12:06:53;;;;;;;9.38;6.35;;;;;;;;;;4978016;28;20078;-72
2022/03/28 12:09:22;;;;;;;11.95;7.90;;;;;;;;;;4941956;28;20050;-72
2022/03/28 12:11:49;;;;;;;11.13;6.90;;;;;;;;;;4960204;28;20050;-72
2022/03/28 12:14:16;;;;;;;15.73;7.50;;;;;;;;;;4976133;28;20043;-72
2022/03/28 12:16:49;;;;;;;9.25;6.38;;;;;;;;;;4958111;28;20078;-72
2022/03/28 12:19:25;;;;;;;14.75;7.20;;;;;;;;;;4958050;28;20111;-71
2022/03/28 12:21:52;;;;;;;15.32;7.20;;;;;;;;;;4975057;28;20047;-71
2022/03/28 12:24:20;;;;;;;8.27;6.93;;;;;;;;;;4975488;28;20088;-71
2022/03/28 12:26:47;;;;;;;11.57;7.50;;;;;;;;;;4975303;28;20050;-71
2022/03/28 12:29:14;;;;;;;10.02;7.30;;;;;;;;;;4975454;28;20050;-71
2022/03/28 12:31:44;;;;;;;20.80;8.80;;;;;;;;;;4974724;28;20087;-71
2022/03/28 12:34:11;;;;;;;17.88;9.40;;;;;;;;;;4957895;28;20101;-71
2022/03/28 12:36:38;;;;;;;10.57;7.25;;;;;;;;;;4975142;28;20082;-71
2022/03/28 12:39:09;;;;;;;15.68;9.38;;;;;;;;;;4975098;28;20097;-71
2022/03/28 12:41:46;;;;;;;15.00;8.20;;;;;;;;;;4974938;28;20042;-71
2022/03/28 12:44:23;;;;;;;12.10;8.30;;;;;;;;;;4961135;28;20054;-73
2022/03/28 12:46:49;;;;;;;17.23;9.63;;;;;;;;;;4938361;29;20122;-71
2022/03/28 12:49:17;;;;;;;16.25;9.55;;;;;;;;;;4953849;28;20043;-71
2022/03/28 12:51:43;;;;;;;10.60;8.07;;;;;;;;;;4954321;29;20106;-71
2022/03/28 12:54:11;;;;;;;12.00;8.00;;;;;;;;;;4955904;29;20094;-71
2022/03/28 12:56:50;;;;;;;12.40;8.23;;;;;;;;;;4954440;29;20477;-72
2022/03/28 12:59:17;;;;;;;10.55;8.32;;;;;;;;;;4938529;29;20054;-72
2022/03/28 13:01:43;;;;;;;10.32;8.80;;;;;;;;;;4955050;28;20039;-72
2022/03/28 13:04:21;;;;;;;10.55;8.73;;;;;;;;;;4955177;28;20054;-72
2022/03/28 13:06:50;;;;;;;14.30;9.82;;;;;;;;;;4955689;29;20119;-72
2022/03/28 13:09:16;;;;;;;19.48;9.73;;;;;;;;;;4955878;29;20079;-72
2022/03/28 13:11:43;;;;;;;12.75;9.73;;;;;;;;;;4955099;29;20493;-72
2022/03/28 13:14:22;;;;;;;10.98;8.40;;;;;;;;;;4954072;29;20055;-72
2022/03/28 13:16:48;;;;;;;13.02;9.10;;;;;;;;;;4956124;29;20419;-72
2022/03/28 13:19:19;;;;;;;10.38;8.65;;;;;;;;;;4955518;28;20183;-72
2022/03/28 13:21:45;;;;;;;21.67;9.75;;;;;;;;;;4954496;29;20051;-72
2022/03/28 13:24:12;;;;;;;12.32;9.73;;;;;;;;;;4955564;29;20482;-72
2022/03/28 13:26:38;;;;;;;12.38;9.20;;;;;;;;;;4938370;29;20054;-72
2022/03/28 13:29:16;;;;;;;15.68;9.75;;;;;;;;;;4955466;29;20470;-72
2022/03/28 13:31:42;;;;;;;;;;;;;;;;;;4956286;29;20074;-72
2022/03/28 13:34:08;;;;;;;12.02;9.68;;;;;;;;;;4956696;28;20377;-72
2022/03/28 13:36:34;;;;;;;10.75;9.25;;;;;;;;;;4959141;29;20047;-72
2022/03/28 13:39:00;;;;;;;12.00;9.63;;;;;;;;;;4959122;28;20439;-72
2022/03/28 13:41:27;;;;;;;18.67;10.45;;;;;;;;;;4970412;28;20035;-72
2022/03/28 13:43:52;;;;;;;16.50;10.45;;;;;;;;;;4967791;28;20102;-72
2022/03/28 13:46:18;;;;;;;22.27;11.73;;;;;;;;;;4967478;28;20039;-72
2022/03/28 13:48:45;;;;;;;18.27;10.75;;;;;;;;;;4970714;28;20074;-72
2022/03/28 13:51:11;;;;;;;14.55;9.75;;;;;;;;;;4972327;28;20039;-72
2022/03/28 13:53:39;;;;;;;14.25;9.80;;;;;;;;;;4967450;28;20192;-71
2022/03/28 13:56:08;;;;;;;9.98;8.98;;;;;;;;;;4978123;28;20054;-71
2022/03/28 13:58:35;;;;;;;23.15;12.73;;;;;;;;;;4977580;28;20055;-71
2022/03/28 14:01:01;;;;;;;15.50;10.82;;;;;;;;;;4960320;28;20047;-71
2022/03/28 14:03:29;;;;;;;16.67;10.18;;;;;;;;;;4979191;28;20054;-71
2022/03/28 14:05:55;;;;;;;14.20;10.82;;;;;;;;;;4969143;28;20386;-71
2022/03/28 14:08:22;;;;;;;15.75;10.88;;;;;;;;;;4980964;28;20047;-70
2022/03/28 14:10:48;;;;;;;16.70;10.75;;;;;;;;;;4983384;28;20098;-71
2022/03/28 14:13:18;;;;;;;18.20;10.95;;;;;;;;;;4965345;28;20481;-71
2022/03/28 14:15:45;;;;;;;14.55;11.05;;;;;;;;;;4947537;28;20101;-71
2022/03/28 14:18:14;;;;;;;13.80;11.07;;;;;;;;;;4963663;28;20054;-71
2022/03/28 14:20:40;;;;;;;13.43;10.80;;;;;;;;;;4980434;28;20089;-71
2022/03/28 14:23:06;;;;;;;13.63;10.73;;;;;;;;;;4961360;28;20091;-71
2022/03/28 14:25:32;;;;;;;12.13;10.73;;;;;;;;;;4960761;28;20100;-75
2022/03/28 14:27:58;;;;;;;16.88;11.45;;;;;;;;;;4976941;28;20501;-75
2022/03/28 14:30:24;;;;;;;16.55;12.27;;;;;;;;;;4977903;28;20046;-75